Loncopue, Argentina
Current Conditions -  °F | °C
As of 4:00 AM on Monday 22 Dec 2014 (Local Time) from SCQP Reporting Station
Clear Clear  
Wind Chill:   Ceiling: Unl
Heat Index:   Visibility: 6mi
Dew Point:   Wind: 2mph
Humidity: 93%   Direction: NA
Pressure: 30.27"   Gusts: NA
Location:  38.07°S, 70.62°W
Report Text: SCQP 220700Z VRB02KT CAVOK 08/07 Q1025
Loading
Personal Weather Stations






























Interactive Weather Map New forecast layout! Learn more

10-Day Weather Forecast

Advertisements
Track Severe Weather on mobile